Time;durP1;ratioP1;P1;durP2;ratioP2;P2;SDS_P1;SDS_P2;PMS_P1;PMS_P2;Temp;Humidity;BMP_temperature;BMP_pressure;BME280_temperature;BME280_humidity;BME280_pressure;Samples;Min_cycle;Max_cycle;Signal;HPM_P1;HPM_P2
2024/01/25 00:00:10;;;;;;;12.17;3.20;;;8.90;99.90;;;-141.84;63.38;18712.47;5092970;28;20227;-55
2024/01/25 00:02:38;;;;;;;16.97;3.80;;;8.80;99.90;;;-141.84;62.90;18740.91;5092350;28;20833;-54
2024/01/25 00:05:07;;;;;;;12.93;3.30;;;8.90;99.90;;;-141.84;63.20;18765.28;5092083;28;20728;-51
2024/01/25 00:07:36;;;;;;;12.20;3.23;;;8.90;99.90;;;-141.84;63.45;18728.72;5092178;28;20306;-54
2024/01/25 00:10:07;;;;;;;11.70;3.00;;;8.80;99.90;;;-141.84;63.49;18757.16;5092040;28;20755;-54
2024/01/25 00:12:35;;;;;;;15.83;3.73;;;8.90;99.90;;;-141.84;63.10;18712.47;5084359;28;20220;-54
2024/01/25 00:15:06;;;;;;;13.83;3.60;;;8.90;99.90;;;-141.84;62.69;18751.06;5092369;28;20231;-52
2024/01/25 00:17:34;;;;;;;12.27;3.30;;;8.90;99.90;;;-141.84;63.40;18738.88;5091893;28;20243;-56
2024/01/25 00:20:04;;;;;;;12.83;4.27;;;8.80;99.90;;;-141.84;63.93;18722.63;5092783;28;20196;-55
2024/01/25 00:22:32;;;;;;;15.40;3.23;;;8.70;99.90;;;-141.84;63.50;18742.94;5092038;28;20298;-53
2024/01/25 00:25:01;;;;;;;11.90;3.30;;;8.80;99.90;;;-141.84;62.92;18753.09;5091298;28;20228;-53
2024/01/25 00:27:29;;;;;;;14.23;3.50;;;8.80;99.90;;;-141.84;62.91;18736.84;5080757;28;20227;-53
2024/01/25 00:29:57;;;;;;;13.30;2.90;;;8.80;99.90;;;-141.84;62.55;18769.34;5092693;28;20286;-55
2024/01/25 00:32:27;;;;;;;15.07;3.27;;;8.90;99.90;;;-141.84;63.00;18702.28;5094803;28;20246;-56
2024/01/25 00:34:56;;;;;;;9.70;3.07;;;8.90;99.90;;;-141.84;63.65;18736.84;5092510;28;20271;-54
2024/01/25 00:37:25;;;;;;;13.27;3.50;;;8.80;99.90;;;-141.84;63.04;18757.16;5091858;28;20212;-55
2024/01/25 00:39:54;;;;;;;12.10;3.67;;;8.80;99.90;;;-141.84;62.41;18738.88;5091810;28;20365;-53
2024/01/25 00:42:24;;;;;;;11.77;3.13;;;8.90;99.90;;;-141.84;63.11;18740.91;5092483;28;20255;-53
2024/01/25 00:44:53;;;;;;;15.27;3.53;;;8.80;99.90;;;-141.84;62.66;18740.91;5091569;28;20232;-54
2024/01/25 00:47:23;;;;;;;14.67;3.37;;;8.80;99.90;;;-141.84;62.73;18732.78;5092315;28;20239;-53
2024/01/25 00:49:53;;;;;;;12.67;3.53;;;8.80;99.90;;;-141.84;63.18;18753.09;5091885;28;20230;-53
2024/01/25 00:52:23;;;;;;;15.57;3.10;;;8.80;99.90;;;-141.84;63.12;18722.63;5091450;28;20220;-55
2024/01/25 00:54:52;;;;;;;9.83;2.67;;;8.80;99.90;;;-141.84;62.94;18706.38;5091515;28;20231;-53
2024/01/25 00:57:20;;;;;;;10.60;2.97;;;8.80;99.90;;;-141.84;62.20;18720.59;5088633;28;20220;-54
2024/01/25 00:59:49;;;;;;;15.40;3.90;;;8.80;99.90;;;-141.84;62.76;18720.59;5091421;28;20227;-53
2024/01/25 01:02:26;;;;;;;9.73;2.90;;;8.80;99.90;;;-141.84;62.52;18722.63;5091645;28;20254;-54
2024/01/25 01:04:56;;;;;;;14.70;3.50;;;8.80;99.90;;;-141.84;62.42;18710.44;5089741;28;20222;-54
2024/01/25 01:07:25;;;;;;;15.37;3.40;;;8.80;99.90;;;-141.84;62.14;18724.66;5071040;28;20281;-54
2024/01/25 01:09:53;;;;;;;11.47;3.43;;;8.90;99.90;;;-141.84;62.61;18740.91;5073624;28;20259;-54
2024/01/25 01:12:22;;;;;;;12.33;3.63;;;8.90;99.90;;;-141.84;63.05;18704.31;5070608;28;20223;-53
2024/01/25 01:14:50;;;;;;;11.43;3.53;;;8.80;99.90;;;-141.84;63.59;18740.91;5073510;28;20327;-55
2024/01/25 01:17:18;;;;;;;14.23;3.40;;;8.70;99.90;;;-141.84;62.98;18740.91;5071716;28;20197;-53
2024/01/25 01:19:47;;;;;;;13.47;4.07;;;8.80;99.90;;;-141.84;62.16;18714.50;5070223;28;20224;-54
2024/01/25 01:22:16;;;;;;;15.30;3.67;;;8.80;99.90;;;-141.84;62.92;18716.53;5070428;28;20225;-55
2024/01/25 01:24:45;;;;;;;11.13;2.90;;;8.70;99.90;;;-141.84;61.86;18724.66;5070747;28;20228;-54
2024/01/25 01:27:13;;;;;;;12.80;2.93;;;8.80;99.90;;;-141.84;62.13;18698.22;5077371;28;20228;-55
2024/01/25 01:29:42;;;;;;;12.77;3.53;;;8.80;99.90;;;-141.84;61.44;18714.50;5070669;28;20235;-53
2024/01/25 01:32:10;;;;;;;11.80;3.73;;;8.80;99.90;;;-141.84;61.41;18730.75;5071419;28;20201;-51
2024/01/25 01:34:38;;;;;;;17.37;3.47;;;8.80;99.90;;;-141.84;61.27;18692.13;5069964;28;20220;-54
2024/01/25 01:37:07;;;;;;;13.83;3.60;;;8.80;99.90;;;-141.84;61.81;18694.16;5070183;28;20274;-53
2024/01/25 01:39:36;;;;;;;17.23;3.50;;;8.80;99.90;;;-141.84;61.90;18704.31;5070818;28;20220;-48
2024/01/25 01:42:05;;;;;;;12.57;3.77;;;8.80;99.90;;;-141.84;61.70;18730.75;5069733;28;20225;-51
2024/01/25 01:44:33;;;;;;;14.60;3.13;;;8.80;99.90;;;-141.84;61.42;18720.59;5070255;28;20208;-52
2024/01/25 01:47:02;;;;;;;11.50;3.53;;;8.70;99.90;;;-141.84;62.53;18704.31;5070794;28;20185;-49
2024/01/25 01:49:30;;;;;;;13.73;4.07;;;8.70;99.90;;;-141.84;62.06;18716.53;5069660;28;20643;-49
2024/01/25 01:51:58;;;;;;;15.87;3.57;;;8.70;99.90;;;-141.84;61.71;18694.16;5069764;28;20228;-56
2024/01/25 01:54:27;;;;;;;11.90;3.33;;;8.70;99.90;;;-141.84;60.92;18718.56;5070410;28;20236;-51
2024/01/25 01:56:57;;;;;;;12.83;3.30;;;8.80;99.90;;;-141.84;61.19;18714.50;5069937;28;20236;-51
2024/01/25 01:59:26;;;;;;;11.47;3.67;;;8.80;99.90;;;-141.84;61.57;18686.03;5070518;28;20235;-53
2024/01/25 02:01:54;;;;;;;16.77;3.50;;;8.80;99.90;;;-141.84;61.36;18712.47;5069464;28;20252;-55
2024/01/25 02:04:23;;;;;;;10.17;3.20;;;8.80;99.90;;;-141.84;61.31;18706.38;5070070;28;20220;-53
2024/01/25 02:06:51;;;;;;;20.03;4.23;;;8.70;99.90;;;-141.84;60.76;18690.09;5108118;28;20276;-52
2024/01/25 02:09:20;;;;;;;13.83;3.83;;;8.80;99.90;;;-141.84;60.80;18710.44;5098945;28;20241;-53
2024/01/25 02:11:48;;;;;;;11.37;3.00;;;8.70;99.90;;;-141.84;61.40;18714.50;5110850;28;20199;-52
2024/01/25 02:14:18;;;;;;;14.80;3.70;;;8.70;99.90;;;-141.84;61.03;18706.38;5110035;28;20199;-54
2024/01/25 02:16:46;;;;;;;12.27;3.43;;;8.70;99.90;;;-141.84;60.69;18724.66;5111122;28;20306;-52
2024/01/25 02:19:15;;;;;;;12.03;3.03;;;8.70;99.90;;;-141.84;60.67;18694.16;5110443;28;20726;-56
2024/01/25 02:21:43;;;;;;;14.20;3.90;;;8.70;99.90;;;-141.84;61.70;18702.28;5111284;28;20215;-60
2024/01/25 02:24:13;;;;;;;9.37;3.13;;;8.60;99.90;;;-141.84;62.41;18706.38;5110954;28;20808;-52
2024/01/25 02:26:42;;;;;;;14.50;3.53;;;8.60;99.90;;;-141.84;61.37;18677.91;5110917;28;20240;-57
2024/01/25 02:29:10;;;;;;;14.03;3.23;;;8.60;99.90;;;-141.84;61.53;18667.75;5110773;28;20195;-55
2024/01/25 02:31:39;;;;;;;11.50;3.17;;;8.60;99.90;;;-141.84;60.92;18728.72;5110464;28;20733;-52
2024/01/25 02:34:07;;;;;;;7.40;3.13;;;8.60;99.90;;;-141.84;61.37;18700.25;5110328;28;20934;-55
2024/01/25 02:36:35;;;;;;;13.63;3.37;;;8.60;99.90;;;-141.84;62.12;18696.19;5111372;28;20315;-55
2024/01/25 02:39:04;;;;;;;12.07;3.27;;;8.40;99.90;;;-141.84;61.32;18698.22;5110656;28;20219;-54
2024/01/25 02:41:34;;;;;;;10.97;3.70;;;8.50;99.90;;;-141.84;61.03;18688.06;5110740;28;20226;-57
2024/01/25 02:44:02;;;;;;;13.07;3.50;;;8.50;99.90;;;-141.84;61.55;18681.97;5103013;28;20931;-55
2024/01/25 02:46:31;;;;;;;11.60;3.30;;;8.40;99.90;;;-141.84;61.74;18688.06;5110358;28;20260;-55
2024/01/25 02:48:59;;;;;;;13.93;3.50;;;8.40;99.90;;;-141.84;62.72;18681.97;5110477;28;20743;-55
2024/01/25 02:51:28;;;;;;;13.27;3.27;;;8.10;99.90;;;-141.84;62.40;18706.38;5110965;28;20722;-54
2024/01/25 02:53:57;;;;;;;13.00;3.60;;;8.30;99.90;;;-141.84;63.32;18690.09;5110117;28;20223;-56
2024/01/25 02:56:25;;;;;;;14.57;3.60;;;8.20;99.90;;;-141.84;63.54;18659.63;5110232;28;20222;-55
2024/01/25 02:58:54;;;;;;;16.33;3.80;;;8.20;99.90;;;-141.84;63.72;18728.72;5110041;28;20247;-51
2024/01/25 03:01:22;;;;;;;14.27;3.90;;;8.10;99.90;;;-141.84;63.61;18669.78;5110170;28;20214;-54
2024/01/25 03:03:51;;;;;;;15.23;3.80;;;8.10;99.90;;;-141.84;63.78;18708.41;5109789;28;20700;-51
2024/01/25 03:06:20;;;;;;;16.27;3.67;;;8.10;99.90;;;-141.84;63.96;18688.06;5109752;28;20223;-53
2024/01/25 03:08:51;;;;;;;13.83;3.20;;;8.10;99.90;;;-141.84;64.48;18692.13;5109957;28;20196;-53
2024/01/25 03:11:20;;;;;;;13.23;3.70;;;7.90;99.90;;;-141.84;64.60;18692.13;5111022;28;20677;-55
2024/01/25 03:13:48;;;;;;;11.53;4.00;;;7.90;99.90;;;-141.84;65.79;18722.63;5110333;28;20250;-53
2024/01/25 03:16:17;;;;;;;10.27;3.27;;;7.80;99.90;;;-141.84;65.95;18708.41;5111489;28;20225;-53
2024/01/25 03:18:46;;;;;;;16.70;3.50;;;7.70;99.90;;;-141.84;66.33;18728.72;5110804;28;20302;-54
2024/01/25 03:21:15;;;;;;;14.03;3.63;;;7.70;99.90;;;-141.84;65.58;18716.53;5110208;28;20227;-53
2024/01/25 03:23:43;;;;;;;11.73;3.50;;;7.80;99.90;;;-141.84;65.42;18718.56;5109934;28;20222;-53
2024/01/25 03:26:11;;;;;;;13.77;4.00;;;7.90;99.90;;;-141.84;66.00;18744.97;5111796;28;20233;-53
2024/01/25 03:28:40;;;;;;;13.77;3.57;;;7.90;99.90;;;-141.84;65.80;18712.47;5113560;28;20234;-54
2024/01/25 03:31:08;;;;;;;13.30;3.27;;;7.90;99.90;;;-141.84;65.19;18718.56;5113602;28;20246;-54
2024/01/25 03:33:38;;;;;;;14.23;3.10;;;7.90;99.90;;;-141.84;65.51;18736.84;5113801;28;20221;-53
2024/01/25 03:36:07;;;;;;;15.80;4.03;;;8.00;99.90;;;-141.84;65.70;18724.66;5113795;28;20250;-53
2024/01/25 03:38:35;;;;;;;15.13;3.70;;;7.90;99.90;;;-141.84;65.12;18736.84;5113260;28;20207;-53
2024/01/25 03:41:04;;;;;;;15.70;3.47;;;8.00;99.90;;;-141.84;65.51;18726.69;5114596;28;20240;-53
2024/01/25 03:43:32;;;;;;;10.27;3.40;;;8.00;99.90;;;-141.84;65.49;18747.00;5113595;28;20247;-55
2024/01/25 03:46:11;;;;;;;13.33;3.07;;;8.00;99.90;;;-141.84;65.95;18716.53;5106023;28;20211;-52
2024/01/25 03:48:44;;;;;;;15.93;3.80;;;8.00;99.90;;;-141.84;66.17;18732.78;5113165;28;20302;-54
2024/01/25 03:51:13;;;;;;;15.07;3.83;;;8.00;99.90;;;-141.84;65.55;18736.84;5095436;28;20223;-54
2024/01/25 03:53:42;;;;;;;11.07;3.60;;;8.00;99.90;;;-141.84;65.98;18688.06;5112103;28;20884;-56
2024/01/25 03:56:13;;;;;;;16.33;3.87;;;8.00;99.90;;;-141.84;66.47;18684.00;5061585;28;20219;-54
2024/01/25 03:58:41;;;;;;;16.83;3.50;;;8.00;99.90;;;-141.84;66.79;18753.09;5113071;28;20288;-53
2024/01/25 04:01:10;;;;;;;14.67;3.83;;;8.00;99.90;;;-141.84;66.99;18753.09;5113336;28;20215;-55
2024/01/25 04:03:41;;;;;;;16.13;4.17;;;8.00;99.90;;;-141.84;66.72;18751.06;5112668;28;20219;-51
2024/01/25 04:06:09;;;;;;;16.53;3.53;;;8.00;99.90;;;-141.84;67.16;18755.13;5112707;28;20589;-54
2024/01/25 04:08:38;;;;;;;16.93;4.17;;;8.00;99.90;;;-141.84;67.14;18765.28;5113053;28;20286;-54
2024/01/25 04:11:07;;;;;;;16.80;3.50;;;8.00;99.90;;;-141.84;67.93;18783.56;5113260;28;20278;-55
2024/01/25 04:13:36;;;;;;;13.83;3.60;;;7.90;99.90;;;-141.84;67.88;18795.75;5112781;28;20283;-53
2024/01/25 04:16:05;;;;;;;15.40;3.20;;;8.00;99.90;;;-141.84;68.56;18785.59;5112915;28;20230;-54
2024/01/25 04:18:33;;;;;;;9.43;3.83;;;7.90;99.90;;;-141.84;69.20;18828.28;5113142;28;20699;-50
2024/01/25 04:21:04;;;;;;;16.00;4.10;;;7.80;99.90;;;-141.84;68.99;18834.38;5112899;28;20298;-50
2024/01/25 04:23:32;;;;;;;16.00;3.87;;;7.80;99.90;;;-141.84;68.06;18779.50;5113269;28;20544;-57
2024/01/25 04:26:00;;;;;;;16.50;4.17;;;7.80;99.90;;;-141.84;69.27;18858.75;5104626;28;20199;-53
2024/01/25 04:28:28;;;;;;;17.17;3.93;;;7.70;99.90;;;-141.84;69.33;18840.47;5113303;28;20272;-55
2024/01/25 04:30:57;;;;;;;13.97;3.73;;;7.70;99.90;;;-141.84;68.17;18781.53;5112461;28;20781;-51
2024/01/25 04:33:25;;;;;;;12.43;4.27;;;7.70;99.90;;;-141.84;67.74;18787.63;5112671;28;20246;-54
2024/01/25 04:35:53;;;;;;;12.67;3.20;;;7.80;99.90;;;-141.84;67.03;18749.03;5112711;28;20231;-55
2024/01/25 04:38:23;;;;;;;12.20;3.30;;;7.80;99.90;;;-141.84;66.44;18734.81;5112066;28;20286;-55
2024/01/25 04:40:51;;;;;;;14.20;4.07;;;7.90;99.90;;;-141.84;66.47;18747.00;5112970;28;20327;-54
2024/01/25 04:43:20;;;;;;;11.10;3.43;;;7.90;99.90;;;-141.84;65.86;18724.66;5112483;28;20222;-54
2024/01/25 04:45:48;;;;;;;12.60;3.63;;;8.00;99.90;;;-141.84;66.19;18718.56;5112088;28;20253;-52
2024/01/25 04:48:17;;;;;;;12.97;3.60;;;7.90;99.90;;;-141.84;66.51;18747.00;5112228;28;20222;-51
2024/01/25 04:50:46;;;;;;;16.00;3.87;;;8.00;99.90;;;-141.84;65.34;18716.53;5112272;28;20191;-54
2024/01/25 04:53:14;;;;;;;11.67;3.07;;;8.00;99.90;;;-141.84;65.07;18702.28;5112526;28;20203;-52
2024/01/25 04:55:44;;;;;;;12.57;3.37;;;8.10;99.90;;;-141.84;65.66;18710.44;5112300;28;20276;-55
2024/01/25 04:58:12;;;;;;;15.73;3.77;;;7.90;99.90;;;-141.84;66.46;18716.53;5111518;28;20234;-53
2024/01/25 05:00:40;;;;;;;11.37;3.17;;;7.90;99.90;;;-141.84;66.41;18740.91;5111938;28;20223;-56
2024/01/25 05:03:09;;;;;;;15.67;3.60;;;7.90;99.90;;;-141.84;65.08;18702.28;5111452;28;20237;-55
2024/01/25 05:05:37;;;;;;;15.60;3.47;;;7.90;99.90;;;-141.84;64.79;18700.25;5111638;28;20231;-57
2024/01/25 05:08:07;;;;;;;12.73;3.57;;;7.90;99.90;;;-141.84;65.74;18692.13;5104116;28;20885;-55
2024/01/25 05:10:35;;;;;;;12.87;3.17;;;7.90;99.90;;;-141.84;64.69;18694.16;5111624;28;20692;-55
2024/01/25 05:13:06;;;;;;;14.23;3.27;;;7.90;99.90;;;-141.84;64.01;18690.09;5111672;28;20307;-54
2024/01/25 05:15:35;;;;;;;11.87;3.57;;;8.00;99.90;;;-141.84;63.90;18692.13;5114557;27;20568;-56
2024/01/25 05:18:03;;;;;;;15.67;3.33;;;7.90;99.90;;;-141.84;62.99;18655.56;5112016;28;20230;-53
2024/01/25 05:20:33;;;;;;;14.43;3.33;;;7.90;99.90;;;-141.84;61.75;18679.94;5111877;28;20212;-55
2024/01/25 05:23:03;;;;;;;12.30;2.90;;;8.00;99.90;;;-141.84;59.23;18657.59;5111950;28;20216;-57
2024/01/25 05:25:32;;;;;;;7.83;2.50;;;8.10;99.90;;;-141.84;59.21;18655.56;5111494;28;20215;-56
2024/01/25 05:28:01;;;;;;;10.27;2.63;;;8.10;99.90;;;-141.84;58.77;18655.56;5111423;28;20223;-61
2024/01/25 05:30:31;;;;;;;10.47;2.87;;;8.20;99.90;;;-141.84;58.86;18679.94;5068486;28;20763;-55
2024/01/25 05:32:59;;;;;;;12.70;2.73;;;8.20;99.90;;;-141.84;59.13;18661.66;5114941;27;20230;-55
2024/01/25 05:35:27;;;;;;;11.73;2.80;;;8.20;99.90;;;-141.84;59.32;18679.94;5104383;28;20718;-56
2024/01/25 05:37:56;;;;;;;15.80;2.80;;;8.10;99.90;;;-141.84;59.40;18667.75;5111599;28;20220;-54
2024/01/25 05:40:24;;;;;;;8.27;2.70;;;8.10;99.90;;;-141.84;59.79;18675.88;5111719;28;20223;-53
2024/01/25 05:42:53;;;;;;;9.70;2.83;;;8.10;99.90;;;-141.84;58.26;18659.63;5111365;28;20245;-56
2024/01/25 05:45:21;;;;;;;8.50;2.70;;;8.10;99.90;;;-141.84;58.29;18684.00;5111184;28;20265;-55
2024/01/25 05:47:51;;;;;;;9.63;2.40;;;8.10;99.90;;;-141.84;59.25;18661.66;5110849;28;20246;-54
2024/01/25 05:50:20;;;;;;;10.30;3.07;;;8.10;99.90;;;-141.84;58.90;18696.19;5112170;28;20191;-56
2024/01/25 05:52:48;;;;;;;9.03;2.90;;;8.10;99.90;;;-141.84;59.29;18673.84;5110795;28;20237;-55
2024/01/25 05:55:18;;;;;;;13.83;2.83;;;8.10;99.90;;;-141.84;59.06;18667.75;5111080;28;20227;-55
2024/01/25 05:57:46;;;;;;;10.77;2.77;;;8.10;99.90;;;-141.84;58.16;18684.00;5111313;28;20718;-55
2024/01/25 06:00:15;;;;;;;13.93;3.23;;;8.20;99.90;;;-141.84;58.56;18655.56;5110801;28;20249;-54
2024/01/25 06:02:48;;;;;;;13.20;3.13;;;8.20;99.90;;;-141.84;59.19;18655.56;5102610;28;20240;-55
2024/01/25 06:05:18;;;;;;;10.97;3.10;;;8.10;99.90;;;-141.84;59.20;18641.34;5111403;28;20708;-49
2024/01/25 06:07:48;;;;;;;11.73;2.70;;;8.10;99.90;;;-141.84;57.81;18690.09;5049624;28;20662;-52
2024/01/25 06:10:17;;;;;;;10.10;2.83;;;8.10;99.90;;;-141.84;57.50;18684.00;5106267;28;20712;-53
2024/01/25 06:12:47;;;;;;;10.47;2.60;;;8.10;99.90;;;-141.84;58.45;18655.56;5111162;28;20409;-54
2024/01/25 06:15:15;;;;;;;6.17;2.60;;;8.10;99.90;;;-141.84;57.96;18706.38;5110604;28;20227;-55
2024/01/25 06:17:43;;;;;;;7.17;2.70;;;8.10;99.90;;;-141.84;58.51;18667.75;5111152;28;20211;-55
2024/01/25 06:20:12;;;;;;;11.60;2.50;;;8.10;99.90;;;-141.84;59.48;18659.63;5110831;28;20197;-53
2024/01/25 06:22:42;;;;;;;9.40;2.90;;;8.00;99.90;;;-141.84;59.28;18671.81;5111116;28;20276;-54
2024/01/25 06:25:10;;;;;;;10.10;2.47;;;8.00;99.90;;;-141.84;59.03;18667.75;5111209;28;20329;-53
2024/01/25 06:27:39;;;;;;;8.53;2.37;;;8.00;99.90;;;-141.84;58.76;18651.50;5101348;28;20226;-55
2024/01/25 06:30:09;;;;;;;8.73;2.33;;;8.00;99.90;;;-141.84;58.73;18653.53;5084111;28;20223;-54
2024/01/25 06:32:37;;;;;;;10.23;2.53;;;8.00;99.90;;;-141.84;58.65;18669.78;5090584;28;20249;-56
2024/01/25 06:35:07;;;;;;;10.33;2.90;;;8.00;99.90;;;-141.84;58.82;18657.59;5079854;28;20207;-54
2024/01/25 06:37:36;;;;;;;8.03;2.40;;;8.00;99.90;;;-141.84;57.92;18704.31;5081089;28;20701;-54
2024/01/25 06:40:07;;;;;;;9.33;2.97;;;8.10;99.90;;;-141.84;58.69;18681.97;5083178;28;20702;-53
2024/01/25 06:42:35;;;;;;;10.00;3.20;;;8.00;99.90;;;-141.84;59.41;18647.44;5081449;28;20224;-53
2024/01/25 06:45:05;;;;;;;8.37;2.47;;;8.00;99.90;;;-141.84;59.27;18686.03;5084129;28;20216;-56
2024/01/25 06:47:33;;;;;;;12.57;2.93;;;8.00;99.90;;;-141.84;59.83;18673.84;5082173;28;20262;-54
2024/01/25 06:50:02;;;;;;;11.17;3.20;;;7.90;99.90;;;-141.84;59.13;18663.69;5081683;28;20201;-55
2024/01/25 06:52:31;;;;;;;10.47;2.40;;;7.90;99.90;;;-141.84;60.20;18659.63;5075759;28;20296;-52
2024/01/25 06:54:59;;;;;;;9.93;2.90;;;7.90;99.90;;;-141.84;60.85;18659.63;5076614;28;20315;-53
2024/01/25 06:57:29;;;;;;;10.50;2.97;;;7.90;99.90;;;-141.84;60.21;18684.00;5075071;28;20232;-55
2024/01/25 06:59:57;;;;;;;10.67;3.33;;;7.90;99.90;;;-141.84;60.48;18677.91;5078030;28;20878;-51
2024/01/25 07:02:26;;;;;;;7.37;2.13;;;7.90;99.90;;;-141.84;59.88;18663.69;5083403;28;20197;-55
2024/01/25 07:04:55;;;;;;;10.00;2.50;;;7.90;99.90;;;-141.84;60.61;18684.00;5084844;28;20229;-54
2024/01/25 07:07:24;;;;;;;9.73;2.57;;;7.90;99.90;;;-141.84;61.64;18671.81;5084956;28;20247;-54
2024/01/25 07:09:52;;;;;;;11.17;4.40;;;8.00;99.90;;;-141.84;61.85;18651.50;5089479;28;20231;-56
2024/01/25 07:12:21;;;;;;;8.67;3.83;;;7.90;99.90;;;-141.84;61.40;18690.09;5081855;28;20223;-54
2024/01/25 07:14:50;;;;;;;10.73;3.83;;;7.90;99.90;;;-141.84;61.26;18651.50;5081312;28;20541;-53
2024/01/25 07:17:18;;;;;;;10.57;3.27;;;7.90;99.90;;;-141.84;60.90;18671.81;5082990;28;20210;-54
2024/01/25 07:19:47;;;;;;;11.00;3.60;;;7.90;99.90;;;-141.84;61.21;18681.97;5082599;28;20237;-61
2024/01/25 07:22:17;;;;;;;10.10;2.50;;;7.90;99.90;;;-141.84;60.16;18696.19;5082815;28;20213;-61
2024/01/25 07:24:45;;;;;;;12.40;2.50;;;7.90;99.90;;;-141.84;59.29;18647.44;5082635;28;20231;-61
2024/01/25 07:27:14;;;;;;;10.73;2.27;;;8.00;99.90;;;-141.84;59.49;18677.91;5080015;28;20216;-62
2024/01/25 07:29:45;;;;;;;13.40;2.83;;;8.10;99.90;;;-141.84;59.47;18700.25;5089973;28;20200;-61
2024/01/25 07:32:14;;;;;;;10.07;2.63;;;8.10;99.90;;;-141.84;60.16;18655.56;5082044;28;20185;-61
2024/01/25 07:34:43;;;;;;;10.20;2.70;;;8.10;99.90;;;-141.84;60.08;18659.63;5081742;28;20228;-61
2024/01/25 07:37:12;;;;;;;9.33;2.53;;;8.20;99.90;;;-141.84;59.51;18675.88;5082517;28;20721;-61
2024/01/25 07:39:41;;;;;;;8.57;2.17;;;8.20;99.90;;;-141.84;59.01;18692.13;5088727;28;20473;-61
2024/01/25 07:42:09;;;;;;;9.53;2.27;;;8.00;99.90;;;-141.84;58.69;18686.03;5081718;28;20248;-61
2024/01/25 07:44:37;;;;;;;7.13;2.00;;;8.20;99.90;;;-141.84;58.37;18641.34;5083454;28;20204;-61
2024/01/25 07:47:06;;;;;;;7.80;2.47;;;8.30;99.90;;;-141.84;58.30;18671.81;5085036;28;20657;-61
2024/01/25 07:49:35;;;;;;;12.77;3.47;;;8.30;99.90;;;-141.84;58.26;18679.94;5084324;28;20289;-61
2024/01/25 07:52:07;;;;;;;8.23;2.33;;;8.30;99.90;;;-141.84;58.43;18684.00;5087674;28;20244;-60
2024/01/25 07:54:35;;;;;;;6.50;2.10;;;8.20;99.90;;;-141.84;59.03;18692.13;5085075;28;20224;-53
2024/01/25 07:57:07;;;;;;;7.00;2.27;;;8.20;99.90;;;-141.84;59.35;18659.63;5087076;28;20228;-53
2024/01/25 07:59:35;;;;;;;8.33;2.47;;;8.10;99.90;;;-141.84;59.41;18643.38;5087788;28;20745;-49
2024/01/25 08:02:07;;;;;;;13.17;2.20;;;8.20;99.90;;;-141.84;59.91;18645.41;5089193;28;20222;-52
2024/01/25 08:04:37;;;;;;;9.57;2.20;;;8.00;99.90;;;-141.84;60.69;18669.78;5086821;28;20936;-53
2024/01/25 08:07:07;;;;;;;8.50;2.70;;;7.90;99.90;;;-141.84;61.20;18631.19;5066210;28;20221;-54
2024/01/25 08:09:36;;;;;;;7.23;2.93;;;7.90;99.90;;;-141.84;61.43;18663.69;5078182;28;20227;-52
2024/01/25 08:12:07;;;;;;;9.23;2.30;;;7.80;99.90;;;-141.84;60.59;18651.50;5075739;28;20284;-54
2024/01/25 08:14:35;;;;;;;6.73;2.13;;;7.80;99.90;;;-141.84;61.21;18686.03;5077118;28;20184;-53
2024/01/25 08:17:06;;;;;;;7.53;2.30;;;7.80;99.90;;;-141.84;61.11;18661.66;5077118;28;20268;-50
2024/01/25 08:19:36;;;;;;;10.07;2.47;;;7.80;99.90;;;-141.84;61.15;18667.75;5076472;28;20221;-53
2024/01/25 08:22:07;;;;;;;12.37;3.30;;;7.80;99.90;;;-141.84;60.86;18688.06;5076847;28;20228;-53
2024/01/25 08:24:35;;;;;;;10.50;2.57;;;7.80;99.90;;;-141.84;61.62;18686.03;5076339;28;20229;-51
2024/01/25 08:27:07;;;;;;;14.03;3.00;;;7.80;99.90;;;-141.84;61.86;18669.78;5076884;28;20228;-54
2024/01/25 08:29:35;;;;;;;10.90;2.60;;;7.90;99.90;;;-141.84;61.92;18698.22;5076305;28;20631;-54
2024/01/25 08:32:06;;;;;;;11.10;2.60;;;8.00;99.90;;;-141.84;61.92;18692.13;5077134;28;20197;-53
2024/01/25 08:34:36;;;;;;;11.03;3.30;;;8.10;99.90;;;-141.84;62.69;18702.28;5076497;28;20216;-55
2024/01/25 08:37:07;;;;;;;12.30;3.40;;;8.10;99.90;;;-141.84;62.19;18659.63;5076548;28;20284;-55
2024/01/25 08:39:35;;;;;;;13.67;3.23;;;8.10;99.90;;;-141.84;62.37;18681.97;5076272;28;20710;-50
2024/01/25 08:42:06;;;;;;;9.70;2.90;;;8.20;99.90;;;-141.84;62.41;18667.75;5075848;28;20228;-53
2024/01/25 08:44:35;;;;;;;10.13;3.43;;;8.20;99.90;;;-141.84;63.11;18696.19;5075932;28;20838;-53
2024/01/25 08:47:06;;;;;;;11.43;3.30;;;8.20;99.90;;;-141.84;62.97;18686.03;5076667;28;20227;-52
2024/01/25 08:49:39;;;;;;;10.47;3.23;;;8.20;99.90;;;-141.84;62.00;18704.31;5075331;28;20224;-54
2024/01/25 08:52:10;;;;;;;11.50;3.10;;;8.30;99.90;;;-141.84;60.47;18692.13;5068277;28;20216;-53
2024/01/25 08:54:38;;;;;;;11.20;3.40;;;8.30;99.90;;;-141.84;59.54;18704.31;5075699;28;20738;-55
2024/01/25 08:57:07;;;;;;;8.33;3.07;;;8.40;99.90;;;-141.84;61.41;18712.47;5076010;28;20246;-53
2024/01/25 08:59:37;;;;;;;10.67;2.90;;;8.40;99.90;;;-141.84;62.52;18726.69;5075735;28;20705;-53
2024/01/25 09:02:07;;;;;;;8.90;3.33;;;8.30;99.90;;;-141.84;62.80;18708.41;5077392;28;20200;-54
2024/01/25 09:04:40;;;;;;;8.90;3.07;;;8.40;99.90;;;-141.84;61.00;18730.75;5076367;28;20299;-54
2024/01/25 09:07:10;;;;;;;10.83;2.93;;;8.40;99.90;;;-141.84;60.92;18686.03;5087550;28;20212;-55
2024/01/25 09:09:38;;;;;;;9.13;3.30;;;8.60;99.90;;;-141.84;60.91;18718.56;5086986;28;20259;-56
2024/01/25 09:12:11;;;;;;;10.50;2.60;;;8.60;99.90;;;-141.84;60.14;18714.50;5084001;28;20259;-54
2024/01/25 09:14:40;;;;;;;15.20;2.90;;;8.70;99.90;;;-141.84;59.05;18736.84;5084772;28;20200;-55
2024/01/25 09:17:10;;;;;;;7.07;2.50;;;8.90;99.90;;;-141.84;58.30;18747.00;5086626;28;20235;-53
2024/01/25 09:19:40;;;;;;;13.43;2.80;;;9.00;99.90;;;-141.84;58.15;18761.22;5081713;28;20273;-53
2024/01/25 09:22:10;;;;;;;9.23;2.80;;;9.00;99.90;;;-141.84;57.81;18710.44;5051242;28;20303;-53
2024/01/25 09:24:40;;;;;;;8.33;2.80;;;9.00;99.90;;;-141.84;58.18;18763.25;5083769;28;20315;-54
2024/01/25 09:27:10;;;;;;;12.63;3.17;;;8.90;99.90;;;-141.84;57.73;18730.75;5084650;28;20624;-54
2024/01/25 09:29:39;;;;;;;12.27;3.00;;;9.00;99.90;;;-141.84;58.19;18698.22;5083613;28;20891;-53
2024/01/25 09:32:09;;;;;;;9.00;2.70;;;8.90;99.90;;;-141.84;57.97;18720.59;5075656;28;20652;-54
2024/01/25 09:34:39;;;;;;;15.83;4.17;;;8.90;99.90;;;-141.84;57.64;18720.59;5083562;28;20325;-53
2024/01/25 09:37:11;;;;;;;12.17;4.47;;;8.90;99.90;;;-141.84;58.49;18730.75;5085603;28;20707;-52
2024/01/25 09:39:40;;;;;;;11.30;3.70;;;;;;;-141.84;58.29;18718.56;5095092;28;20228;-55
2024/01/25 09:42:12;;;;;;;8.07;2.67;;;8.80;99.90;;;-141.84;58.08;18686.03;5034404;28;20217;-52
2024/01/25 09:44:47;;;;;;;12.37;3.17;;;8.80;99.90;;;-141.84;58.28;18718.56;5070737;28;20189;-57
2024/01/25 09:47:16;;;;;;;8.67;3.00;;;8.80;99.90;;;-141.84;57.96;18734.81;5046974;28;20200;-54
2024/01/25 09:49:47;;;;;;;11.37;3.47;;;8.80;99.90;;;-141.84;57.78;18747.00;5077861;28;20236;-53
2024/01/25 09:52:24;;;;;;;10.27;3.20;;;8.90;99.90;;;-141.84;56.51;18696.19;5086856;28;20630;-55
2024/01/25 09:54:56;;;;;;;10.60;3.30;;;9.00;99.90;;;-141.84;56.51;18769.34;5059569;28;20228;-53
2024/01/25 09:57:31;;;;;;;12.40;3.20;;;9.10;99.90;;;-141.84;56.85;18726.69;5086600;28;20250;-51
2024/01/25 09:59:59;;;;;;;11.80;3.70;;;9.20;99.90;;;-141.84;57.10;18751.06;5086554;28;20326;-54
2024/01/25 10:02:29;;;;;;;13.30;4.47;;;9.20;99.90;;;-141.84;56.93;18747.00;5058502;28;20314;-54
2024/01/25 10:05:02;;;;;;;9.67;3.57;;;9.20;99.90;;;-141.84;56.15;18757.16;5085690;28;20310;-53
2024/01/25 10:07:47;;;;;;;10.17;3.97;;;9.40;99.90;;;-141.84;55.52;18749.03;5030626;28;20702;-53
2024/01/25 10:10:15;;;;;;;9.97;3.17;;;9.50;99.90;;;-141.84;56.04;18769.34;5083289;28;20241;-54
2024/01/25 10:12:47;;;;;;;14.27;3.70;;;9.50;99.90;;;-141.84;56.32;18757.16;5083543;28;20224;-52
2024/01/25 10:15:15;;;;;;;9.67;2.60;;;9.40;99.90;;;-141.84;56.55;18759.19;5071623;28;20216;-54